EDT,Max TemperatureF,Mean TemperatureF,Min TemperatureF,Max Dew PointF,MeanDew PointF,Min DewpointF,Max Humidity, Mean Humidity, Min Humidity, Max Sea Level PressureIn, Mean Sea Level PressureIn, Min Sea Level PressureIn, Max VisibilityMiles, Mean VisibilityMiles, Min VisibilityMiles, Max Wind SpeedMPH, Mean Wind SpeedMPH, Max Gust SpeedMPH,PrecipitationIn, CloudCover, Events, WindDirDegrees
2012-3-1,33,30,27,25,22,20,84,77,69,29.84,29.71,29.59,10,9,2,12,4,18,T,8,Snow,62
2012-3-2,36,33,29,30,28,25,92,84,75,29.83,29.63,29.25,10,6,0,13,5,18,0.32,8,Fog-Snow,79
2012-3-3,32,19,6,30,15,-1,92,83,73,29.79,29.38,29.06,10,2,0,18,10,25,0.52,8,Fog-Snow,344
2012-3-4,19,10,1,1,-7,-13,76,58,40,30.03,29.91,29.80,10,10,8,12,6,15,T,4,,358
2012-3-5,23,7,-9,12,-1,-15,80,63,46,30.31,30.23,30.04,10,10,10,9,4,13,0.00,2,,142
2012-3-6,36,28,19,29,22,13,84,75,66,30.27,30.08,29.84,10,7,1,17,11,25,0.01,6,Snow,124
2012-3-7,52,42,31,45,35,28,92,70,48,29.83,29.68,29.55,10,8,3,20,9,28,0.30,6,Rain,189
2012-3-8,38,29,20,34,22,15,92,80,68,30.01,29.80,29.58,10,6,1,26,14,40,0.03,8,Rain-Snow,295
2012-3-9,27,18,8,21,12,4,84,67,49,30.51,30.20,29.93,10,4,0,30,13,43,0.06,7,Snow,313
2012-3-10,34,21,8,20,13,4,83,65,47,30.52,30.25,30.01,10,8,1,24,9,30,0.01,4,Snow,118
2012-3-11,52,38,24,32,27,20,88,66,44,30.13,30.07,30.00,10,10,10,15,6,18,0.00,0,,133
2012-3-12,45,39,33,38,34,28,92,75,57,30.12,29.81,29.63,10,5,0,16,7,26,0.59,6,Fog-Rain,96
2012-3-13,43,39,34,39,35,27,92,74,55,30.02,29.77,29.63,10,8,2,23,11,32,0.12,7,Rain,255
2012-3-14,51,43,35,29,26,24,92,64,36,30.09,30.00,29.92,10,10,6,17,7,27,0.00,1,,101
2012-3-15,58,47,35,38,32,26,76,62,47,30.04,29.99,29.92,10,10,10,13,4,16,0.00,1,,290
2012-3-16,60,45,30,40,33,26,83,63,42,30.13,30.09,30.03,10,10,10,12,5,14,0.00,0,,112
2012-3-17,65,54,43,48,42,38,100,80,60,30.09,30.04,29.98,10,7,0,12,6,16,0.00,5,Fog,103
2012-3-18,72,58,44,52,47,41,92,71,49,30.04,30.00,29.96,10,9,6,13,6,17,0.00,1,,105
2012-3-19,68,57,45,51,47,44,93,76,58,30.06,30.03,30.00,10,5,0,12,6,19,0.00,5,Fog,109
2012-3-20,69,60,50,51,49,47,89,72,55,30.07,30.03,29.99,10,8,4,16,7,23,0.00,1,Thunderstorm,98
2012-3-21,83,67,50,53,49,45,86,61,36,30.11,30.07,30.01,10,9,6,24,7,33,0.00,1,,145
2012-3-22,56,53,50,50,48,45,89,81,72,30.23,30.19,30.10,10,9,2,12,3,15,0.34,7,Rain-Thunderstorm,63
2012-3-23,55,51,47,47,43,40,83,75,66,30.22,30.12,30.04,10,10,5,15,8,24,0.11,8,Rain,96
2012-3-24,52,49,46,39,31,26,71,55,38,30.04,29.97,29.91,10,10,10,14,9,20,T,7,Rain,113
2012-3-25,46,36,26,39,30,11,92,69,46,30.27,30.01,29.89,10,8,1,32,15,42,T,7,,305
2012-3-26,39,30,20,17,12,7,68,50,32,30.51,30.43,30.30,10,10,10,15,7,21,0.00,0,,338
2012-3-27,40,33,25,31,22,17,81,67,52,30.39,30.06,29.58,10,10,9,28,12,39,0.01,5,Rain,120
2012-3-28,45,39,33,37,33,24,92,78,64,30.03,29.68,29.51,10,8,2,23,13,35,0.04,8,Rain,299
2012-3-29,41,35,29,24,21,19,72,60,48,30.23,30.16,30.04,10,10,10,14,8,19,0.00,5,,360
2012-3-30,32,30,28,25,22,16,78,64,49,30.16,30.07,30.00,10,7,0,18,8,29,0.04,7,Snow,95
2012-3-31,42,35,27,26,24,19,85,68,50,30.09,30.00,29.86,10,10,9,13,4,16,T,7,,125